createdAt,value
2023-02-17T00:02:17.198Z,59.59
2023-02-17T00:04:44.818Z,59.60
2023-02-17T00:07:12.437Z,59.38
2023-02-17T00:09:40.288Z,59.66
2023-02-17T00:12:08.518Z,59.39
2023-02-17T00:14:36.240Z,59.35
2023-02-17T00:17:03.827Z,59.78
2023-02-17T00:19:32.744Z,59.76
2023-02-17T00:22:01.866Z,59.31
2023-02-17T00:24:31.209Z,59.41
2023-02-17T00:26:58.939Z,59.57
2023-02-17T00:29:26.922Z,59.60
2023-02-17T00:31:55.717Z,59.81
2023-02-17T00:34:23.430Z,59.58
2023-02-17T00:36:52.397Z,59.70
2023-02-17T00:39:20.012Z,59.69
2023-02-17T00:41:47.732Z,59.55
2023-02-17T00:44:18.259Z,59.58
2023-02-17T00:46:47.291Z,59.52
2023-02-17T00:49:17.462Z,59.61
2023-02-17T00:51:45.663Z,59.54
2023-02-17T00:54:15.174Z,59.72
2023-02-17T00:56:43.072Z,59.62
2023-02-17T00:59:13.078Z,59.67
2023-02-17T01:01:42.403Z,59.53
2023-02-17T01:04:11.346Z,59.56
2023-02-17T01:06:42.561Z,59.90
2023-02-17T01:09:17.503Z,59.50
2023-02-17T01:11:46.910Z,59.74
2023-02-17T01:14:16.850Z,59.86
2023-02-17T01:16:49.373Z,59.62
2023-02-17T01:19:20.593Z,59.60
2023-02-17T01:21:49.670Z,59.76
2023-02-17T01:24:20.299Z,59.28
2023-02-17T01:26:49.712Z,59.56
2023-02-17T01:29:18.930Z,59.34
2023-02-17T01:31:48.155Z,59.87
2023-02-17T01:34:17.537Z,59.59
2023-02-17T01:36:46.346Z,59.62
2023-02-17T01:39:16.148Z,59.27
2023-02-17T01:41:46.804Z,59.60
2023-02-17T01:44:19.647Z,59.43
2023-02-17T01:46:50.373Z,59.62
2023-02-17T01:49:29.257Z,59.57
2023-02-17T01:52:03.712Z,59.54
2023-02-17T01:54:38.023Z,59.74
2023-02-17T01:57:09.084Z,59.63
2023-02-17T01:59:38.366Z,59.46
2023-02-17T02:02:08.674Z,59.60
2023-02-17T02:04:42.072Z,59.67
2023-02-17T02:07:16.468Z,59.80
2023-02-17T02:09:50.991Z,59.40
2023-02-17T02:12:24.023Z,59.78
2023-02-17T02:14:54.627Z,59.58
2023-02-17T02:17:33.112Z,59.76
2023-02-17T02:20:30.704Z,59.65
2023-02-17T02:23:32.472Z,59.69
2023-02-17T02:26:42.779Z,59.54
2023-02-17T02:29:32.871Z,59.69
2023-02-17T02:32:20.175Z,59.54
2023-02-17T02:34:55.137Z,59.63
2023-02-17T02:37:30.873Z,59.70
2023-02-17T02:40:04.532Z,59.78
2023-02-17T02:42:35.374Z,59.64
2023-02-17T02:45:06.700Z,59.46
2023-02-17T02:47:50.485Z,59.65
2023-02-17T02:50:23.350Z,59.75
2023-02-17T02:53:34.329Z,59.71
2023-02-17T02:56:20.491Z,59.60
2023-02-17T02:59:03.470Z,59.77
2023-02-17T03:01:48.271Z,59.89
2023-02-17T03:04:39.682Z,59.43
2023-02-17T03:07:27.514Z,59.88
2023-02-17T03:10:05.356Z,59.69
2023-02-17T03:12:46.545Z,59.78
2023-02-17T03:15:27.747Z,59.62
2023-02-17T03:18:01.527Z,59.77
2023-02-17T03:20:42.315Z,59.75
2023-02-17T03:23:17.382Z,59.63
2023-02-17T03:25:55.432Z,59.64
2023-02-17T03:28:32.837Z,59.71
2023-02-17T03:31:09.354Z,59.37
2023-02-17T03:33:43.546Z,59.53
2023-02-17T03:36:26.496Z,59.64
2023-02-17T03:39:27.892Z,59.57
2023-02-17T03:42:01.834Z,59.87
2023-02-17T03:44:42.174Z,59.67
2023-02-17T03:47:15.981Z,59.84
2023-02-17T03:49:47.051Z,59.68
2023-02-17T03:52:23.625Z,59.66
2023-02-17T03:54:57.936Z,59.65
2023-02-17T03:57:32.410Z,59.70
2023-02-17T04:00:06.655Z,59.69
2023-02-17T04:02:55.248Z,59.61
2023-02-17T04:05:30.340Z,59.62
2023-02-17T04:08:06.653Z,59.76
2023-02-17T04:10:47.307Z,60.01
2023-02-17T04:13:29.467Z,59.63
2023-02-17T04:16:07.306Z,59.65
2023-02-17T04:18:41.809Z,59.58
2023-02-17T04:21:23.918Z,59.52
2023-02-17T04:23:59.248Z,59.59
2023-02-17T04:26:34.874Z,59.84
2023-02-17T04:29:12.470Z,59.71
2023-02-17T04:31:44.522Z,59.63
2023-02-17T04:34:38.412Z,59.64
2023-02-17T04:37:15.483Z,59.51
2023-02-17T04:39:54.441Z,59.32
2023-02-17T04:42:32.086Z,60.00
2023-02-17T04:45:09.852Z,59.79
2023-02-17T04:47:45.131Z,59.80
2023-02-17T04:50:22.441Z,59.53
2023-02-17T04:52:53.931Z,59.54
2023-02-17T04:55:38.800Z,59.75
2023-02-17T04:58:15.099Z,59.63
2023-02-17T05:00:57.048Z,59.68
2023-02-17T05:03:32.692Z,59.39
2023-02-17T05:06:10.841Z,59.56
2023-02-17T05:08:44.695Z,59.64
2023-02-17T05:11:31.153Z,59.50
2023-02-17T05:14:10.100Z,59.64
2023-02-17T05:16:46.480Z,59.78
2023-02-17T05:19:29.904Z,59.74
2023-02-17T05:22:13.101Z,59.65
2023-02-17T05:24:52.270Z,59.57
2023-02-17T05:27:24.666Z,59.69
2023-02-17T05:30:11.955Z,59.63
2023-02-17T05:32:44.260Z,59.63
2023-02-17T05:35:19.045Z,59.85
2023-02-17T05:38:14.273Z,59.81
2023-02-17T05:40:59.566Z,59.51
2023-02-17T05:43:38.900Z,59.23
2023-02-17T05:46:26.615Z,59.57
2023-02-17T05:49:22.057Z,59.50
2023-02-17T05:51:52.716Z,59.65
2023-02-17T05:54:29.598Z,59.66
2023-02-17T05:57:24.768Z,59.50
2023-02-17T06:00:15.891Z,59.93
2023-02-17T06:03:04.521Z,59.21
2023-02-17T06:05:38.543Z,59.67
2023-02-17T06:08:15.999Z,59.70
2023-02-17T06:13:51.588Z,59.67
2023-02-17T06:16:31.737Z,59.58
2023-02-17T06:19:23.816Z,59.62
2023-02-17T06:22:12.372Z,59.55
2023-02-17T06:24:56.644Z,59.78
2023-02-17T06:27:47.066Z,59.88
2023-02-17T06:30:35.854Z,59.63
2023-02-17T06:33:32.017Z,59.78
2023-02-17T06:39:24.350Z,59.76
2023-02-17T06:42:16.305Z,59.96
2023-02-17T06:44:57.955Z,59.43
2023-02-17T06:47:37.157Z,59.88
2023-02-17T06:50:33.881Z,60.08
2023-02-17T06:53:29.551Z,60.09
2023-02-17T06:56:26.054Z,59.88
2023-02-17T06:58:55.179Z,59.89
2023-02-17T07:01:26.070Z,59.96
2023-02-17T07:03:54.217Z,60.15
2023-02-17T07:06:24.302Z,59.72
2023-02-17T07:08:52.146Z,59.90
2023-02-17T07:11:20.527Z,59.93
2023-02-17T07:13:48.515Z,59.97
2023-02-17T07:16:17.106Z,60.08
2023-02-17T07:18:44.858Z,59.64
2023-02-17T07:21:12.621Z,59.94
2023-02-17T07:23:41.844Z,59.80
2023-02-17T07:26:12.394Z,59.87
2023-02-17T07:28:41.222Z,59.81
2023-02-17T07:31:11.208Z,59.84
2023-02-17T07:33:39.758Z,59.99
2023-02-17T07:36:08.794Z,60.09
2023-02-17T07:38:37.271Z,59.97
2023-02-17T07:41:07.464Z,59.88
2023-02-17T07:43:35.733Z,60.09
2023-02-17T07:46:03.944Z,60.15
2023-02-17T07:48:32.122Z,59.81
2023-02-17T07:51:06.368Z,60.02
2023-02-17T07:53:34.511Z,60.39
2023-02-17T07:56:03.708Z,59.97
2023-02-17T07:58:34.076Z,60.16
2023-02-17T08:01:07.020Z,60.04
2023-02-17T08:03:34.767Z,60.15
2023-02-17T08:06:02.563Z,59.94
2023-02-17T08:08:47.796Z,60.10
2023-02-17T08:11:50.054Z,59.83
2023-02-17T08:14:21.383Z,59.65
2023-02-17T08:16:49.105Z,60.03
2023-02-17T08:19:17.108Z,59.98
2023-02-17T08:21:44.949Z,59.97
2023-02-17T08:24:13.265Z,60.04
2023-02-17T08:26:41.062Z,60.08
2023-02-17T08:29:08.828Z,60.26
2023-02-17T08:31:38.855Z,60.05
2023-02-17T08:34:09.653Z,59.90
2023-02-17T08:36:38.321Z,59.80
2023-02-17T08:39:06.517Z,60.08
2023-02-17T08:41:36.585Z,60.14
2023-02-17T08:44:07.874Z,60.15
2023-02-17T08:46:37.803Z,60.26
2023-02-17T08:49:06.448Z,60.21
2023-02-17T08:51:34.941Z,60.15
2023-02-17T08:54:03.694Z,60.17
2023-02-17T08:56:31.697Z,60.15
2023-02-17T08:59:00.003Z,60.11
2023-02-17T09:01:28.070Z,60.06
2023-02-17T09:03:59.338Z,60.26
2023-02-17T09:06:33.939Z,60.07
2023-02-17T09:09:02.307Z,60.24
2023-02-17T09:11:29.964Z,60.19
2023-02-17T09:13:57.653Z,60.43
2023-02-17T09:16:25.435Z,60.17
2023-02-17T09:18:54.046Z,60.14
2023-02-17T09:21:23.485Z,60.24
2023-02-17T09:23:51.925Z,60.16
2023-02-17T09:26:19.896Z,60.08
2023-02-17T09:28:48.070Z,60.47
2023-02-17T09:31:18.211Z,60.32
2023-02-17T09:33:47.739Z,60.12
2023-02-17T09:36:17.545Z,60.22
2023-02-17T09:38:46.747Z,60.41
2023-02-17T09:41:22.336Z,60.31
2023-02-17T09:43:50.866Z,59.93
2023-02-17T09:46:24.981Z,60.26
2023-02-17T09:48:55.654Z,60.46
2023-02-17T09:51:30.539Z,60.20
2023-02-17T09:54:07.710Z,60.20
2023-02-17T09:56:39.413Z,60.59
2023-02-17T09:59:12.644Z,60.30
2023-02-17T10:01:42.378Z,60.18
2023-02-17T10:04:15.131Z,60.03
2023-02-17T10:06:47.047Z,60.47
2023-02-17T10:09:22.072Z,60.05
2023-02-17T10:11:54.295Z,60.20
2023-02-17T10:14:27.362Z,60.34
2023-02-17T10:17:02.669Z,60.13
2023-02-17T10:19:33.377Z,60.26
2023-02-17T10:22:08.157Z,60.29
2023-02-17T10:24:37.171Z,60.13
2023-02-17T10:27:19.591Z,60.33
2023-02-17T10:29:58.650Z,60.29
2023-02-17T10:32:28.069Z,60.45
2023-02-17T10:35:13.292Z,60.23
2023-02-17T10:37:47.973Z,60.55
2023-02-17T10:40:21.531Z,60.28
2023-02-17T10:42:52.046Z,60.08
2023-02-17T10:45:30.112Z,60.51
2023-02-17T10:48:03.111Z,60.32
2023-02-17T10:50:32.096Z,60.31
2023-02-17T10:53:00.003Z,60.42
2023-02-17T10:55:36.531Z,60.61
2023-02-17T10:58:07.886Z,60.28
2023-02-17T11:00:35.576Z,60.56
2023-02-17T11:03:03.377Z,60.48
2023-02-17T11:05:34.157Z,60.42
2023-02-17T11:08:05.137Z,60.45
2023-02-17T11:10:37.210Z,60.02
2023-02-17T11:13:20.234Z,60.27
2023-02-17T11:15:48.804Z,60.35
2023-02-17T11:18:22.669Z,60.36
2023-02-17T11:20:50.402Z,60.35
2023-02-17T11:23:24.055Z,60.27
2023-02-17T11:26:11.292Z,60.27
2023-02-17T11:28:39.164Z,60.36
2023-02-17T11:31:07.275Z,60.39
2023-02-17T11:33:38.105Z,60.45
2023-02-17T11:36:08.242Z,60.28
2023-02-17T11:38:44.753Z,60.40
2023-02-17T11:41:14.530Z,60.50
2023-02-17T11:43:53.457Z,60.27
2023-02-17T11:46:29.029Z,60.39
2023-02-17T11:49:08.259Z,60.26
2023-02-17T11:51:52.204Z,60.38
2023-02-17T11:54:25.287Z,60.17
2023-02-17T11:57:05.453Z,60.39
2023-02-17T11:59:53.024Z,60.41
2023-02-17T12:02:43.705Z,60.43
2023-02-17T12:05:21.802Z,60.35
2023-02-17T12:08:02.298Z,60.40
2023-02-17T12:10:45.454Z,60.60
2023-02-17T12:13:32.336Z,60.45
2023-02-17T12:16:15.535Z,60.28
2023-02-17T12:18:52.112Z,60.62
2023-02-17T12:21:31.608Z,60.26
2023-02-17T12:24:29.195Z,60.32
2023-02-17T12:27:05.858Z,60.39
2023-02-17T12:29:51.131Z,60.47
2023-02-17T12:32:33.702Z,60.30
2023-02-17T12:35:13.665Z,60.41
2023-02-17T12:37:49.393Z,60.36
2023-02-17T12:40:29.402Z,60.31
2023-02-17T12:43:00.900Z,60.11
2023-02-17T12:45:37.399Z,60.13
2023-02-17T12:48:07.877Z,60.01
2023-02-17T12:50:39.407Z,60.20
2023-02-17T12:53:14.077Z,60.16
2023-02-17T12:55:48.382Z,60.29
2023-02-17T12:58:19.067Z,60.40
2023-02-17T13:00:53.008Z,60.06
2023-02-17T13:03:20.820Z,60.29
2023-02-17T13:05:59.716Z,60.25
2023-02-17T13:08:33.570Z,60.26
2023-02-17T13:11:02.511Z,60.34
2023-02-17T13:13:32.630Z,60.35
2023-02-17T13:16:07.220Z,60.12
2023-02-17T13:18:36.894Z,60.57
2023-02-17T13:21:18.130Z,60.18
2023-02-17T13:23:58.530Z,60.42
2023-02-17T13:26:29.262Z,60.31
2023-02-17T13:29:20.835Z,60.31
2023-02-17T13:31:53.562Z,60.08
2023-02-17T13:34:30.140Z,60.27
2023-02-17T13:36:58.283Z,60.53
2023-02-17T13:39:39.158Z,60.40
2023-02-17T13:42:33.461Z,60.56
2023-02-17T13:45:01.392Z,60.61
2023-02-17T13:47:37.716Z,60.56
2023-02-17T13:50:07.062Z,60.37
2023-02-17T13:52:34.942Z,60.84
2023-02-17T13:55:04.888Z,60.15
2023-02-17T13:57:33.830Z,60.36
2023-02-17T14:00:09.955Z,60.21
2023-02-17T14:02:46.604Z,60.42
2023-02-17T14:05:20.196Z,60.45
2023-02-17T14:07:48.422Z,60.58
2023-02-17T14:10:21.309Z,60.75
2023-02-17T14:12:49.869Z,60.36
2023-02-17T14:15:18.327Z,60.49
2023-02-17T14:17:47.594Z,60.77
2023-02-17T14:20:33.354Z,60.65
2023-02-17T14:23:06.631Z,60.34
2023-02-17T14:25:37.082Z,59.61
2023-02-17T14:28:05.865Z,59.59
2023-02-17T14:30:36.094Z,59.56
2023-02-17T14:33:08.043Z,59.37
2023-02-17T14:35:39.395Z,59.00
2023-02-17T14:38:20.870Z,58.95
2023-02-17T14:40:48.914Z,57.92
2023-02-17T14:43:16.761Z,57.95
2023-02-17T14:45:44.353Z,58.32
2023-02-17T14:48:13.366Z,58.10
2023-02-17T14:50:44.173Z,57.96
2023-02-17T14:53:15.072Z,58.25
2023-02-17T14:55:47.648Z,58.65
2023-02-17T14:58:20.857Z,58.68
2023-02-17T15:00:49.320Z,58.73
2023-02-17T15:03:18.300Z,58.95
2023-02-17T15:05:46.178Z,58.96
2023-02-17T15:08:17.256Z,59.15
2023-02-17T15:10:45.188Z,59.14
2023-02-17T15:13:15.720Z,59.15
2023-02-17T15:15:45.015Z,59.34
2023-02-17T15:18:13.046Z,59.51
2023-02-17T15:20:43.482Z,59.58
2023-02-17T15:23:13.932Z,59.66
2023-02-17T15:25:41.901Z,59.42
2023-02-17T15:28:12.730Z,59.51
2023-02-17T15:30:40.466Z,59.60
2023-02-17T15:33:12.288Z,59.47
2023-02-17T15:35:43.098Z,59.77
2023-02-17T15:38:12.773Z,59.32
2023-02-17T15:40:41.662Z,59.17
2023-02-17T15:43:14.336Z,59.32
2023-02-17T15:45:42.023Z,59.06
2023-02-17T15:48:14.778Z,59.32
2023-02-17T15:50:43.719Z,59.38
2023-02-17T15:53:11.329Z,59.36
2023-02-17T15:55:40.645Z,59.40
2023-02-17T15:58:16.556Z,59.02
2023-02-17T16:00:46.464Z,59.29
2023-02-17T16:03:14.877Z,59.28
2023-02-17T16:05:43.949Z,59.47
2023-02-17T16:08:11.639Z,59.40
2023-02-17T16:10:42.347Z,59.28
2023-02-17T16:13:15.377Z,59.28
2023-02-17T16:15:43.618Z,59.14
2023-02-17T16:18:20.179Z,58.91
2023-02-17T16:20:49.218Z,59.24
2023-02-17T16:23:16.900Z,59.28
2023-02-17T16:25:46.054Z,59.48
2023-02-17T16:28:16.614Z,59.31
2023-02-17T16:30:46.323Z,59.56
2023-02-17T16:33:14.382Z,59.47
2023-02-17T16:35:43.079Z,59.61
2023-02-17T16:38:17.245Z,59.55
2023-02-17T16:40:48.165Z,59.25
2023-02-17T16:43:16.640Z,58.60
2023-02-17T16:45:51.131Z,58.73
2023-02-17T16:48:18.823Z,58.47
2023-02-17T16:50:46.863Z,58.26
2023-02-17T16:53:15.814Z,58.46
2023-02-17T16:55:43.682Z,58.42
2023-02-17T16:58:16.710Z,58.31
2023-02-17T17:00:45.683Z,58.15
2023-02-17T17:03:13.340Z,58.06
2023-02-17T17:05:42.810Z,58.00
2023-02-17T17:08:12.570Z,58.25
2023-02-17T17:10:41.904Z,58.14
2023-02-17T17:13:09.580Z,58.22
2023-02-17T17:15:38.168Z,58.03
2023-02-17T17:18:08.657Z,57.99
2023-02-17T17:20:40.784Z,57.73
2023-02-17T17:23:13.661Z,57.88
2023-02-17T17:25:45.104Z,57.83
2023-02-17T17:28:14.794Z,57.73
2023-02-17T17:30:42.411Z,58.45
2023-02-17T17:33:10.121Z,57.93
2023-02-17T17:35:38.003Z,57.79
2023-02-17T17:38:06.192Z,57.57
2023-02-17T17:40:48.087Z,57.75
2023-02-17T17:43:18.739Z,57.58
2023-02-17T17:45:46.769Z,57.82
2023-02-17T17:48:15.807Z,57.22
2023-02-17T17:50:43.672Z,57.49
2023-02-17T17:53:11.603Z,57.48
2023-02-17T17:55:39.227Z,57.49
2023-02-17T17:58:06.874Z,57.54
2023-02-17T18:00:35.907Z,57.60
2023-02-17T18:03:03.862Z,57.50
2023-02-17T18:05:31.673Z,57.56
2023-02-17T18:07:59.457Z,57.28
2023-02-17T18:10:27.118Z,57.38
2023-02-17T18:12:54.776Z,57.68
2023-02-17T18:15:22.574Z,57.31
2023-02-17T18:17:52.509Z,57.31
2023-02-17T18:20:20.263Z,57.67
2023-02-17T18:22:47.932Z,58.48
2023-02-17T18:25:15.519Z,58.54
2023-02-17T18:27:45.481Z,58.43
2023-02-17T18:30:16.655Z,58.68
2023-02-17T18:32:44.470Z,58.80
2023-02-17T18:35:14.544Z,58.52
2023-02-17T18:37:42.671Z,58.55
2023-02-17T18:40:13.839Z,58.84
2023-02-17T18:42:41.792Z,58.92
2023-02-17T18:45:10.682Z,58.78
2023-02-17T18:47:38.683Z,58.90
2023-02-17T18:50:08.427Z,58.90
2023-02-17T18:52:39.206Z,58.66
2023-02-17T18:55:08.126Z,58.92
2023-02-17T18:57:35.851Z,59.03
2023-02-17T19:00:04.641Z,59.00
2023-02-17T19:02:32.304Z,59.44
2023-02-17T19:04:59.907Z,59.21
2023-02-17T19:07:27.548Z,59.42
2023-02-17T19:09:56.485Z,59.11
2023-02-17T19:12:24.101Z,58.87
2023-02-17T19:14:55.637Z,59.25
2023-02-17T19:17:23.936Z,59.00
2023-02-17T19:19:51.942Z,59.10
2023-02-17T19:22:19.918Z,59.33
2023-02-17T19:24:52.023Z,59.33
2023-02-17T19:27:21.654Z,59.61
2023-02-17T19:29:49.222Z,59.35
2023-02-17T19:32:16.879Z,59.55
2023-02-17T19:34:44.570Z,59.39
2023-02-17T19:37:12.157Z,59.19
2023-02-17T19:39:40.386Z,59.42
2023-02-17T19:42:08.173Z,59.32
2023-02-17T19:44:37.120Z,59.44
2023-02-17T19:47:04.768Z,59.61
2023-02-17T19:49:32.419Z,59.64
2023-02-17T19:52:00.043Z,59.37
2023-02-17T19:54:28.347Z,59.82
2023-02-17T19:56:55.949Z,59.58
2023-02-17T19:59:23.597Z,59.77
2023-02-17T20:01:52.538Z,59.92
2023-02-17T20:04:20.870Z,59.72
2023-02-17T20:06:49.141Z,59.75
2023-02-17T20:09:19.014Z,59.91
2023-02-17T20:11:48.176Z,59.85
2023-02-17T20:14:16.084Z,59.87
2023-02-17T20:16:43.729Z,59.96
2023-02-17T20:19:12.681Z,59.87
2023-02-17T20:21:44.580Z,60.01
2023-02-17T20:24:13.085Z,60.09
2023-02-17T20:26:43.363Z,60.07
2023-02-17T20:29:12.082Z,60.04
2023-02-17T20:31:41.122Z,60.14
2023-02-17T20:34:21.755Z,60.36
2023-02-17T20:36:50.703Z,60.12
2023-02-17T20:39:19.796Z,60.17
2023-02-17T20:41:47.636Z,59.90
2023-02-17T20:44:15.288Z,60.26
2023-02-17T20:46:43.607Z,60.08
2023-02-17T20:49:11.709Z,60.22
2023-02-17T20:51:39.669Z,60.09
2023-02-17T20:54:08.669Z,60.64
2023-02-17T20:56:38.759Z,60.42
2023-02-17T20:59:08.267Z,60.07
2023-02-17T21:01:36.213Z,60.18
2023-02-17T21:04:03.930Z,60.35
2023-02-17T21:06:34.106Z,60.34
2023-02-17T21:09:04.384Z,60.49
2023-02-17T21:11:34.064Z,60.33
2023-02-17T21:14:02.242Z,60.48
2023-02-17T21:16:31.542Z,60.44
2023-02-17T21:18:59.818Z,60.52
2023-02-17T21:21:28.603Z,60.54
2023-02-17T21:23:56.532Z,60.65
2023-02-17T21:26:24.174Z,60.44
2023-02-17T21:28:53.213Z,60.41
2023-02-17T21:31:21.156Z,60.72
2023-02-17T21:33:48.847Z,60.57
2023-02-17T21:36:19.650Z,60.66
2023-02-17T21:38:48.094Z,60.54
2023-02-17T21:41:17.111Z,60.59
2023-02-17T21:44:03.038Z,60.62
2023-02-17T21:46:32.284Z,60.83
2023-02-17T21:49:01.754Z,60.76
2023-02-17T21:51:29.640Z,60.75
2023-02-17T21:53:57.842Z,60.77
2023-02-17T21:56:25.915Z,61.02
2023-02-17T21:58:56.152Z,60.87
2023-02-17T22:01:26.066Z,60.52
2023-02-17T22:03:55.876Z,61.01
2023-02-17T22:06:25.955Z,60.92
2023-02-17T22:08:54.325Z,61.11
2023-02-17T22:11:24.237Z,60.95
2023-02-17T22:13:56.096Z,61.10
2023-02-17T22:16:24.254Z,61.13
2023-02-17T22:18:52.068Z,61.06
2023-02-17T22:21:21.086Z,61.12
2023-02-17T22:23:48.910Z,61.12
2023-02-17T22:26:18.583Z,61.10
2023-02-17T22:28:46.277Z,61.21
2023-02-17T22:31:14.389Z,60.88
2023-02-17T22:33:42.465Z,61.29
2023-02-17T22:36:12.417Z,61.17
2023-02-17T22:38:41.535Z,61.17
2023-02-17T22:41:11.746Z,61.29
2023-02-17T22:43:41.137Z,61.19
2023-02-17T22:46:10.798Z,61.32
2023-02-17T22:48:39.837Z,61.21
2023-02-17T22:51:08.734Z,61.52
2023-02-17T22:53:37.116Z,61.39
2023-02-17T22:56:07.625Z,61.16
2023-02-17T22:58:36.821Z,61.25
2023-02-17T23:01:07.227Z,61.52
2023-02-17T23:03:35.412Z,61.63
2023-02-17T23:06:04.416Z,61.36
2023-02-17T23:08:32.237Z,61.25
2023-02-17T23:11:00.005Z,60.90
2023-02-17T23:13:29.173Z,61.45
2023-02-17T23:15:56.813Z,61.16
2023-02-17T23:18:24.604Z,61.12
2023-02-17T23:20:52.635Z,61.46
2023-02-17T23:23:20.766Z,61.73
2023-02-17T23:25:50.897Z,61.18
2023-02-17T23:28:19.702Z,61.67
2023-02-17T23:30:49.351Z,61.23
2023-02-17T23:33:17.980Z,61.17
2023-02-17T23:35:47.674Z,61.42
2023-02-17T23:38:16.981Z,61.69
2023-02-17T23:40:49.910Z,61.78
2023-02-17T23:43:17.797Z,61.78
2023-02-17T23:45:45.607Z,61.52
2023-02-17T23:48:14.672Z,61.94
2023-02-17T23:50:42.640Z,61.80
2023-02-17T23:53:10.533Z,61.88
2023-02-17T23:55:38.099Z,62.16
2023-02-17T23:58:05.758Z,61.89
